Tulnici, România

04:33 AM EET on ianuarie 30, 2015 (GMT +0200)
Bacau | Change Station
CLOSE
Current Station
Aeroport
Location: Bacau,
Elevation: 607 ft
Nearby Weather Stations

Elev 607 ft 46.52 °N, 26.91 °E | Updated 33 minutes ago

Mist
Ceaţă
34 °F
Feels Like 24 °F
N
15
Vânt variabil Vânt from sud

astăzi
High -- | Low -- °F
--% Chance of Precip.
Ieri
High -- | Low -- °F
Precip. -- inch
7:38 AM 5:15 PM
Lună în creştere, 79% visible
Presiunea 29.44 inch
Vizibilitatea 3.1 mile
Nori
Vânt rece 24 °F
Punctul de rouă 34 °F
Umiditatea 100%
Precipitaţii 0.00 inch
Adâncimea zăpezii Not available.
UV Not available.
Pollen Not available.
Calitatea aerului Not available.
Flu Activity Not available.
METAR LRBC 300200Z AUTO 17013KT 5000NDV BR NCD 01/01 Q0997

More Conditions Fewer Conditions

Presiunea 29.44 inch
Vizibilitatea 3.1 mile
Nori
Vânt rece 24 °F
Punctul de rouă 34 °F
Umiditatea 100%
Precipitaţii 0.00 inch
Adâncimea zăpezii Not available.
UV Not available.
Pollen Not available.
Calitatea aerului Not available.
Flu Activity Not available.
METAR LRBC 300200Z AUTO 17013KT 5000NDV BR NCD 01/01 Q0997

More Conditions Fewer Conditions

10-Day Weather Forecast

Almanac

Astronomie

Jan. 30, 2015 Răsărit Apus
Timpul Actual
Crepusculul Civil
Crepusculul nautic
Răsărit Astronomic
Luna
Durata zilei lumină
Lungimea zilei
Tomorrow will be .
, % of the Moon is Illuminated

Extremele de azi

Country Highs Country Lows

Community

WunderPhotos

Upload Photos

1,791,695 photos uploaded!

WunderBlogs® & News

Nearby

Calitatea aerului

  Calitatea aerului Index de calitate a aerului Poluat
Not available.

Adâncimea zapezii

Station Depth Elevation

Earthquake Activity

Oraş Distance Mag. Time & Date
Minimum magnitude displayed is 2.5.

Coastal Water Temperatures

Locul Temperatura

Nearby Weather Stations